KMOP/MOP METAR and TAF weather

Enter ICAO airport designator
Station Type Date Time Source
KMOP METAR 2018/12/11 17:55 UTC NOAA

KMOP 111755Z AUTO 28007KT 7SM OVC017 M01/M06 A2997 RMK AO2 T10061057 11005 21015


Station Type Date Time Source
KMOP Decoded METAR 2018/12/11 17:55 UTC NOAA

Mount Pleasant, Mount Pleasant Municipal Airport, MI, United States (KMOP) 43-37N 84-44W
Dec 11, 2018 - 12:55 PM EST / 2018.12.11 1755 UTC
Wind: from the W (280 degrees) at 8 MPH (7 KT):0
Visibility: 7 mile(s):0
Sky conditions: overcast
Temperature: 30.9 F (-0.6 C)
Windchill: 23 F (-5 C):1
Dew Point: 21.7 F (-5.7 C)
Relative Humidity: 68%
Pressure (altimeter): 29.97 in. Hg (1014 hPa)
ob: KMOP 111755Z AUTO 28007KT 7SM OVC017 M01/M06 A2997 RMK AO2 T10061057 11005 21015
cycle: 18

Station Type Date Time Source
KMOP TAF UTC NOAA

Error!


Example: see airport list